Time;durP1;ratioP1;P1;durP2;ratioP2;P2;SDS_P1;SDS_P2;PMS_P1;PMS_P2;Temp;Humidity;BMP_temperature;BMP_pressure;BME280_temperature;BME280_humidity;BME280_pressure;Samples;Min_cycle;Max_cycle;Signal;HPM_P1;HPM_P2
2023/01/22 00:00:33;;;;;;;79.90;17.87;;;2.10;97.30;;;;;;5069895;27;20500;-59
2023/01/22 00:03:00;;;;;;;59.80;14.60;;;2.10;97.40;;;;;;5076704;28;20515;-59
2023/01/22 00:05:27;;;;;;;50.93;14.83;;;2.10;97.50;;;;;;5048162;28;20868;-59
2023/01/22 00:07:54;;;;;;;72.37;16.50;;;;;;;;;;5046156;28;20488;-59
2023/01/22 00:10:20;;;;;;;55.80;15.03;;;2.20;97.50;;;;;;5070994;28;20985;-59
2023/01/22 00:12:47;;;;;;;76.97;19.20;;;2.10;97.30;;;;;;5050790;28;21662;-60
2023/01/22 00:15:14;;;;;;;54.37;15.43;;;2.20;97.60;;;;;;5035481;28;20486;-60
2023/01/22 00:17:42;;;;;;;101.67;21.30;;;2.20;97.70;;;;;;5065026;28;20474;-60
2023/01/22 00:20:11;;;;;;;70.63;17.60;;;2.20;97.70;;;;;;5048691;28;20471;-59
2023/01/22 00:22:37;;;;;;;79.47;19.77;;;2.30;97.80;;;;;;5072285;28;20794;-59
2023/01/22 00:25:05;;;;;;;70.30;15.63;;;2.30;97.90;;;;;;5049079;27;20479;-59
2023/01/22 00:27:31;;;;;;;63.20;14.50;;;2.30;97.90;;;;;;5084737;27;20880;-60
2023/01/22 00:29:59;;;;;;;62.60;17.77;;;;;;;;;;5039141;28;20477;-59
2023/01/22 00:32:26;;;;;;;67.40;18.03;;;;;;;;;;5069547;28;20870;-59
2023/01/22 00:34:54;;;;;;;66.57;18.17;;;2.40;98.00;;;;;;5080401;28;20963;-59
2023/01/22 00:37:21;;;;;;;55.30;18.00;;;;;;;;;;5041097;28;20479;-60
2023/01/22 00:39:48;;;;;;;94.50;20.00;;;;;;;;;;5067382;28;20485;-59
2023/01/22 00:42:14;;;;;;;72.77;16.70;;;2.40;98.00;;;;;;5051717;28;20809;-59
2023/01/22 00:44:41;;;;;;;85.63;19.53;;;2.30;98.20;;;;;;5058183;28;20661;-59
2023/01/22 00:47:08;;;;;;;66.73;14.00;;;2.30;98.30;;;;;;5044656;28;20467;-60
2023/01/22 00:49:35;;;;;;;95.10;18.83;;;2.20;98.30;;;;;;5050791;28;20476;-59
2023/01/22 00:52:03;;;;;;;66.37;16.87;;;2.30;98.40;;;;;;5052020;28;20546;-60
2023/01/22 00:54:30;;;;;;;61.23;13.90;;;2.30;98.60;;;;;;5066884;28;21076;-59
2023/01/22 00:56:56;;;;;;;62.00;13.90;;;2.30;98.80;;;;;;5046876;28;20667;-59
2023/01/22 00:59:23;;;;;;;51.20;13.33;;;;;;;;;;5075317;28;21036;-59
2023/01/22 01:01:50;;;;;;;46.77;11.20;;;;;;;;;;5061294;28;20485;-59
2023/01/22 01:04:17;;;;;;;40.57;12.03;;;;;;;;;;5068819;28;20483;-58
2023/01/22 01:06:44;;;;;;;103.90;21.17;;;;;;;;;;5049862;28;20489;-59
2023/01/22 01:09:13;;;;;;;57.07;14.77;;;2.20;99.40;;;;;;5067822;27;20514;-58
2023/01/22 01:11:39;;;;;;;62.17;14.87;;;2.10;99.30;;;;;;5075759;27;20487;-58
2023/01/22 01:14:06;;;;;;;60.47;13.43;;;;;;;;;;5069493;28;21369;-58
2023/01/22 01:16:34;;;;;;;96.50;19.70;;;;;;;;;;5061460;28;20490;-59
2023/01/22 01:19:01;;;;;;;74.77;15.30;;;;;;;;;;5049898;28;20475;-59
2023/01/22 01:21:28;;;;;;;56.37;13.30;;;;;;;;;;5060576;28;20655;-59
2023/01/22 01:23:56;;;;;;;58.67;15.20;;;;;;;;;;5078009;28;20493;-58
2023/01/22 01:26:24;;;;;;;55.53;16.30;;;2.20;99.60;;;;;;5048769;28;22064;-59
2023/01/22 01:28:52;;;;;;;57.03;15.27;;;;;;;;;;5050926;28;20479;-59
2023/01/22 01:31:20;;;;;;;65.73;12.63;;;2.20;99.70;;;;;;5042382;28;20570;-59
2023/01/22 01:33:47;;;;;;;54.80;18.53;;;2.20;99.70;;;;;;5077733;28;20668;-59
2023/01/22 01:36:15;;;;;;;34.40;12.30;;;2.20;99.70;;;;;;5052398;28;20489;-60
2023/01/22 01:38:43;;;;;;;60.60;17.10;;;2.20;99.60;;;;;;5072281;28;20470;-59
2023/01/22 01:41:11;;;;;;;40.80;11.80;;;;;;;;;;5062945;28;20477;-59
2023/01/22 01:43:40;;;;;;;61.00;18.60;;;2.20;99.70;;;;;;5058435;28;20483;-60
2023/01/22 01:46:11;;;;;;;46.47;13.00;;;;;;;;;;5070614;28;21618;-59
2023/01/22 01:48:41;;;;;;;67.47;19.90;;;2.10;99.70;;;;;;5063974;28;20470;-59
2023/01/22 01:51:12;;;;;;;40.97;12.83;;;2.20;99.80;;;;;;5044935;28;20865;-59
2023/01/22 01:53:40;;;;;;;70.57;20.83;;;2.10;99.70;;;;;;5055055;28;20479;-59
2023/01/22 01:56:11;;;;;;;41.87;12.30;;;;;;;;;;5065681;28;20836;-59
2023/01/22 01:58:39;;;;;;;61.13;14.50;;;;;;;;;;5045214;28;20497;-59
2023/01/22 02:01:11;;;;;;;41.00;12.47;;;2.10;99.70;;;;;;5076131;28;20518;-59
2023/01/22 02:03:39;;;;;;;49.37;16.90;;;;;;;;;;5049888;27;20494;-59
2023/01/22 02:06:06;;;;;;;48.43;13.50;;;;;;;;;;5073187;27;20485;-58
2023/01/22 02:08:34;;;;;;;45.47;14.57;;;2.10;99.90;;;;;;5058962;28;20478;-59
2023/01/22 02:11:01;;;;;;;47.40;14.30;;;;;;;;;;5052924;28;21055;-59
2023/01/22 02:13:32;;;;;;;48.47;12.93;;;2.00;99.90;;;;;;5038264;28;20482;-58
2023/01/22 02:15:59;;;;;;;37.07;12.13;;;2.10;99.90;;;;;;5076188;28;20479;-58
2023/01/22 02:18:27;;;;;;;37.20;12.00;;;2.10;99.90;;;;;;5047161;28;20475;-59
2023/01/22 02:20:56;;;;;;;50.17;14.30;;;;;;;;;;5065500;28;20481;-59
2023/01/22 02:23:23;;;;;;;44.30;14.90;;;;;;;;;;5059128;27;20481;-59
2023/01/22 02:25:50;;;;;;;51.00;14.57;;;2.10;99.90;;;;;;5067848;27;20520;-59
2023/01/22 02:28:17;;;;;;;47.47;12.73;;;2.10;99.90;;;;;;5065337;28;20479;-58
2023/01/22 02:30:44;;;;;;;53.73;15.67;;;2.10;99.90;;;;;;5047139;28;20475;-59
2023/01/22 02:33:10;;;;;;;56.80;14.00;;;2.10;99.90;;;;;;5065366;28;20507;-58
2023/01/22 02:35:37;;;;;;;58.70;17.07;;;2.10;99.90;;;;;;5062522;28;20485;-59
2023/01/22 02:38:06;;;;;;;53.60;14.00;;;;;;;;;;5044744;28;20908;-59
2023/01/22 02:40:32;;;;;;;39.40;11.97;;;2.10;99.90;;;;;;5047790;28;20490;-59
2023/01/22 02:42:59;;;;;;;47.40;15.17;;;2.10;99.90;;;;;;5060004;28;20485;-59
2023/01/22 02:45:26;;;;;;;45.83;14.37;;;;;;;;;;5047445;28;20695;-59
2023/01/22 02:47:53;;;;;;;41.47;11.77;;;;;;;;;;5076254;28;20514;-59
2023/01/22 02:50:20;;;;;;;42.67;12.90;;;;;;;;;;5062919;28;20477;-60
2023/01/22 02:52:47;;;;;;;62.30;16.97;;;2.20;99.90;;;;;;5050266;28;20501;-59
2023/01/22 02:55:15;;;;;;;54.67;18.03;;;2.20;99.90;;;;;;5075250;28;20473;-60
2023/01/22 02:57:42;;;;;;;67.00;18.20;;;2.20;99.80;;;;;;5070629;28;20974;-59
2023/01/22 03:00:10;;;;;;;41.23;11.47;;;2.20;99.80;;;;;;5026263;28;21477;-59
2023/01/22 03:02:37;;;;;;;64.83;18.93;;;2.20;99.80;;;;;;5052971;28;20508;-59
2023/01/22 03:05:04;;;;;;;55.23;16.60;;;2.30;99.90;;;;;;5062378;28;20954;-60
2023/01/22 03:07:40;;;;;;;47.73;15.10;;;;;;;;;;5032028;28;21016;-59
2023/01/22 03:10:10;;;;;;;44.03;13.20;;;2.30;99.70;;;;;;5063003;28;20486;-59
2023/01/22 03:21:14;;;;;;;70.33;16.30;;;;;;;;;;5039035;28;20540;-59
2023/01/22 03:23:41;;;;;;;62.50;18.40;;;2.40;99.70;;;;;;5074206;28;21064;-59
2023/01/22 03:26:08;;;;;;;46.47;14.20;;;;;;;;;;5069631;28;20499;-59
2023/01/22 03:28:37;;;;;;;74.73;19.17;;;2.40;99.70;;;;;;5076744;28;21147;-59
2023/01/22 03:31:05;;;;;;;58.13;19.37;;;;;;;;;;5041448;28;21018;-59
2023/01/22 03:33:32;;;;;;;59.57;19.20;;;2.30;99.50;;;;;;5075987;28;20875;-59
2023/01/22 03:36:00;;;;;;;47.73;16.60;;;2.50;99.60;;;;;;5072694;28;20481;-59
2023/01/22 03:38:27;;;;;;;48.87;15.53;;;2.50;99.50;;;;;;5063455;28;20544;-59
2023/01/22 03:41:00;;;;;;;50.60;16.87;;;2.40;99.50;;;;;;5062657;28;21012;-59
2023/01/22 03:43:27;;;;;;;51.77;15.83;;;;;;;;;;5037875;28;20496;-59
2023/01/22 03:46:01;;;;;;;50.37;16.10;;;2.40;99.70;;;;;;5078464;28;20578;-59
2023/01/22 03:48:28;;;;;;;53.43;14.83;;;2.40;99.70;;;;;;5063401;28;20481;-60
2023/01/22 03:50:55;;;;;;;69.93;18.23;;;2.50;99.60;;;;;;5065302;28;20491;-59
2023/01/22 03:53:22;;;;;;;44.97;13.70;;;;;;;;;;5039177;28;20480;-58
2023/01/22 03:55:56;;;;;;;49.63;16.50;;;0.80;98.80;;;;;;5084736;28;20536;-60
2023/01/22 03:58:23;;;;;;;43.70;13.47;;;2.50;99.60;;;;;;5058732;28;20622;-59
2023/01/22 04:00:50;;;;;;;58.40;18.97;;;2.60;99.70;;;;;;5065118;28;20579;-59
2023/01/22 04:03:18;;;;;;;49.13;13.47;;;;;;;;;;5082675;28;20615;-59
2023/01/22 04:05:45;;;;;;;67.23;17.57;;;2.60;99.60;;;;;;5054613;28;20473;-60
2023/01/22 04:08:12;;;;;;;44.23;13.00;;;;;;;;;;5058914;28;20483;-59
2023/01/22 04:10:39;;;;;;;71.70;18.47;;;2.60;99.70;;;;;;5061164;28;20492;-59
2023/01/22 04:13:06;;;;;;;43.33;13.30;;;;;;;;;;5070733;28;20530;-59
2023/01/22 04:15:33;;;;;;;46.23;16.40;;;;;;;;;;5062015;28;20492;-59
2023/01/22 04:18:00;;;;;;;59.63;14.60;;;;;;;;;;5064145;28;20474;-59
2023/01/22 04:20:28;;;;;;;46.10;12.77;;;;;;;;;;5051076;28;20497;-59
2023/01/22 04:22:55;;;;;;;64.83;16.37;;;;;;;;;;5056006;28;20495;-59
2023/01/22 04:25:22;;;;;;;37.73;12.97;;;;;;;;;;5037804;28;20491;-58
2023/01/22 04:27:49;;;;;;;44.60;13.63;;;;;;;;;;5047802;28;20493;-59
2023/01/22 04:30:17;;;;;;;44.73;13.93;;;;;;;;;;5074144;28;20483;-59
2023/01/22 04:32:45;;;;;;;86.03;22.13;;;;;;;;;;5055432;28;20868;-59
2023/01/22 04:35:12;;;;;;;47.47;12.87;;;;;;;;;;5071670;28;20467;-59
2023/01/22 04:37:40;;;;;;;58.37;18.43;;;2.50;99.80;;;;;;5047403;28;20490;-59
2023/01/22 04:40:08;;;;;;;44.13;15.03;;;2.60;99.80;;;;;;5072286;28;20581;-58
2023/01/22 04:42:35;;;;;;;61.30;16.63;;;;;;;;;;5072703;28;20497;-59
2023/01/22 04:45:02;;;;;;;53.27;15.40;;;2.70;99.80;;;;;;5055063;28;20858;-59
2023/01/22 04:47:29;;;;;;;35.50;11.97;;;2.60;99.60;;;;;;5072176;28;20490;-60
2023/01/22 04:49:56;;;;;;;39.90;12.60;;;;;;;;;;5071119;28;20476;-59
2023/01/22 04:52:23;;;;;;;48.30;13.80;;;2.70;99.80;;;;;;5070532;28;21016;-59
2023/01/22 04:54:52;;;;;;;56.40;16.13;;;;;;;;;;5075740;28;20560;-59
2023/01/22 04:57:19;;;;;;;48.23;15.07;;;2.70;99.60;;;;;;5059112;28;20482;-58
2023/01/22 04:59:46;;;;;;;67.47;19.13;;;;;;;;;;5064382;28;20477;-58
2023/01/22 05:02:13;;;;;;;53.77;13.70;;;2.70;99.60;;;;;;5062111;28;20504;-60
2023/01/22 05:04:39;;;;;;;62.67;19.20;;;2.80;99.60;;;;;;5063922;28;22075;-60
2023/01/22 05:07:06;;;;;;;55.30;13.97;;;;;;;;;;5041618;28;20482;-60
2023/01/22 05:09:33;;;;;;;49.53;13.13;;;;;;;;;;5070627;28;20982;-60
2023/01/22 05:12:02;;;;;;;40.87;12.27;;;;;;;;;;5048701;28;20484;-60
2023/01/22 05:14:29;;;;;;;51.37;15.57;;;2.80;99.50;;;;;;5044296;28;20479;-60
2023/01/22 05:16:55;;;;;;;40.70;13.50;;;2.80;99.60;;;;;;5067887;28;20490;-59
2023/01/22 05:19:22;;;;;;;43.90;13.73;;;2.80;99.60;;;;;;5058333;28;20492;-59
2023/01/22 05:21:49;;;;;;;65.77;15.40;;;2.80;99.40;;;;;;5070619;28;20975;-59
2023/01/22 05:24:17;;;;;;;45.70;12.90;;;2.80;99.60;;;;;;5046093;28;20568;-59
2023/01/22 05:26:44;;;;;;;116.93;24.33;;;2.80;99.60;;;;;;5077819;28;20491;-59
2023/01/22 05:29:12;;;;;;;51.20;12.40;;;;;;;;;;5070470;28;20510;-59
2023/01/22 05:31:39;;;;;;;85.27;19.13;;;2.80;99.60;;;;;;5064720;28;20587;-59
2023/01/22 05:34:06;;;;;;;53.80;15.40;;;2.90;99.70;;;;;;5060318;28;20479;-59
2023/01/22 05:36:33;;;;;;;79.73;18.70;;;2.90;99.60;;;;;;5042846;28;20491;-59
2023/01/22 05:39:00;;;;;;;55.87;12.70;;;;;;;;;;5078665;28;20487;-59
2023/01/22 05:41:27;;;;;;;65.40;15.40;;;;;;;;;;5055726;28;20483;-59
2023/01/22 05:43:55;;;;;;;62.63;13.50;;;;;;;;;;5059449;28;20480;-60
2023/01/22 05:46:26;;;;;;;83.57;19.07;;;;;;;;;;5064475;28;21068;-59
2023/01/22 05:48:53;;;;;;;41.00;11.30;;;2.90;99.50;;;;;;5064586;28;20494;-60
2023/01/22 05:51:19;;;;;;;50.23;12.30;;;2.90;99.60;;;;;;5050553;28;20488;-60
2023/01/22 05:53:46;;;;;;;81.03;18.20;;;;;;;;;;5069822;28;20859;-60
2023/01/22 05:56:13;;;;;;;51.37;13.77;;;;;;;;;;5059376;28;20863;-59
2023/01/22 05:58:40;;;;;;;83.60;19.37;;;;;;;;;;5054544;28;21012;-59
2023/01/22 06:01:07;;;;;;;63.17;15.73;;;;;;;;;;5064693;28;20997;-60
2023/01/22 06:03:36;;;;;;;73.63;17.67;;;2.90;99.70;;;;;;5053819;28;20495;-60
2023/01/22 06:06:05;;;;;;;55.63;15.00;;;2.90;99.70;;;;;;5050083;28;20495;-59
2023/01/22 06:08:32;;;;;;;49.90;13.20;;;2.90;99.60;;;;;;5048228;28;20505;-59
2023/01/22 06:11:00;;;;;;;60.07;15.17;;;2.90;99.70;;;;;;5050064;28;20475;-59
2023/01/22 06:13:27;;;;;;;41.10;12.90;;;3.00;99.80;;;;;;5049749;28;21236;-60
2023/01/22 06:15:54;;;;;;;60.10;17.37;;;2.90;99.80;;;;;;5046191;28;20475;-59
2023/01/22 06:18:22;;;;;;;48.67;12.73;;;2.80;99.70;;;;;;5061461;28;20614;-59
2023/01/22 06:20:50;;;;;;;76.20;16.70;;;2.90;99.80;;;;;;5064193;28;20487;-59
2023/01/22 06:23:17;;;;;;;53.13;14.00;;;2.80;99.80;;;;;;5054742;28;20483;-59
2023/01/22 06:25:44;;;;;;;70.93;19.03;;;2.80;99.90;;;;;;5055651;28;20483;-59
2023/01/22 06:28:11;;;;;;;58.03;15.50;;;2.80;99.90;;;;;;5051911;28;20476;-59
2023/01/22 06:30:38;;;;;;;85.67;18.03;;;;;;;;;;5055599;28;21007;-60
2023/01/22 06:33:04;;;;;;;68.23;13.77;;;2.80;99.90;;;;;;5056364;28;20483;-59
2023/01/22 06:35:31;;;;;;;47.67;14.90;;;2.80;99.90;;;;;;5053654;28;20475;-60
2023/01/22 06:37:59;;;;;;;56.93;14.07;;;2.90;99.90;;;;;;5049497;28;20520;-60
2023/01/22 06:40:26;;;;;;;40.97;14.10;;;2.90;99.90;;;;;;5055999;28;20513;-60
2023/01/22 06:42:53;;;;;;;48.47;15.50;;;2.90;99.90;;;;;;5081368;28;20912;-60
2023/01/22 06:45:20;;;;;;;54.30;14.27;;;;;;;;;;5068842;28;20821;-60
2023/01/22 06:47:46;;;;;;;67.40;17.27;;;3.00;99.90;;;;;;5066871;28;20520;-60
2023/01/22 06:50:13;;;;;;;58.80;16.07;;;4.10;99.90;;;;;;5054539;28;20481;-60
2023/01/22 06:52:40;;;;;;;66.87;17.50;;;3.00;99.80;;;;;;5025608;28;20474;-60
2023/01/22 06:55:09;;;;;;;49.67;13.87;;;;;;;;;;5066369;28;20493;-59
2023/01/22 06:57:36;;;;;;;72.63;18.73;;;;;;;;;;5058737;28;20488;-60
2023/01/22 07:00:04;;;;;;;62.43;15.73;;;;;;;;;;5054947;28;20489;-60
2023/01/22 07:02:32;;;;;;;42.37;14.70;;;;;;;;;;5063574;28;21082;-60
2023/01/22 07:04:59;;;;;;;52.57;15.53;;;;;;;;;;5047265;28;20509;-60
2023/01/22 07:07:26;;;;;;;50.90;14.63;;;;;;;;;;5070444;28;20478;-60
2023/01/22 07:09:53;;;;;;;53.07;15.30;;;3.10;99.90;;;;;;5049535;28;20483;-59
2023/01/22 07:12:21;;;;;;;38.00;12.23;;;;;;;;;;5087539;28;20999;-59
2023/01/22 07:14:48;;;;;;;62.80;17.07;;;;;;;;;;5041587;28;20490;-59
2023/01/22 07:17:15;;;;;;;67.13;15.80;;;3.10;99.90;;;;;;5040084;28;20483;-59
2023/01/22 07:19:42;;;;;;;71.20;16.40;;;3.00;99.90;;;;;;5069998;28;20488;-59
2023/01/22 07:22:09;;;;;;;44.83;12.43;;;;;;;;;;5067146;28;21387;-59
2023/01/22 07:24:36;;;;;;;54.63;14.47;;;;;;;;;;5053815;28;20483;-59
2023/01/22 07:27:03;;;;;;;62.40;15.60;;;-0.70;98.30;;;;;;5070374;28;20508;-60
2023/01/22 07:29:31;;;;;;;40.40;11.53;;;3.10;99.90;;;;;;5048883;28;21172;-59
2023/01/22 07:31:57;;;;;;;73.40;14.20;;;3.10;99.90;;;;;;5047084;28;20927;-60
2023/01/22 07:34:24;;;;;;;43.53;13.00;;;;;;;;;;5067554;28;20814;-60
2023/01/22 07:36:51;;;;;;;75.93;15.80;;;;;;;;;;5071390;28;20542;-60
2023/01/22 07:39:19;;;;;;;54.07;14.20;;;;;;;;;;5074160;28;20481;-59
2023/01/22 07:41:45;;;;;;;72.23;15.00;;;3.10;99.90;;;;;;5049915;28;20476;-59
2023/01/22 07:44:12;;;;;;;46.93;13.00;;;3.10;99.90;;;;;;5063471;28;20473;-59
2023/01/22 07:46:40;;;;;;;134.90;25.90;;;3.20;99.90;;;;;;5053767;28;20483;-60
2023/01/22 07:49:07;;;;;;;49.23;13.37;;;3.20;99.90;;;;;;5043002;28;20483;-59
2023/01/22 07:51:34;;;;;;;77.93;17.00;;;3.20;99.90;;;;;;5075266;28;20499;-59
2023/01/22 07:54:02;;;;;;;79.50;14.60;;;;;;;;;;5055941;28;21283;-60
2023/01/22 07:56:29;;;;;;;83.90;18.37;;;;;;;;;;5062558;28;20496;-60
2023/01/22 07:58:56;;;;;;;72.60;14.10;;;;;;;;;;5064771;28;20566;-59
2023/01/22 08:01:22;;;;;;;69.93;16.60;;;3.20;99.90;;;;;;5069485;28;20492;-59
2023/01/22 08:03:51;;;;;;;86.50;17.00;;;;;;;;;;5070713;28;21008;-59
2023/01/22 08:06:20;;;;;;;76.93;15.40;;;;;;;;;;5040555;28;20491;-60
2023/01/22 08:08:47;;;;;;;107.53;19.80;;;;;;;;;;5075155;28;20577;-59
2023/01/22 08:11:14;;;;;;;61.50;13.40;;;3.30;99.90;;;;;;5073408;28;20544;-59
2023/01/22 08:13:41;;;;;;;91.07;19.43;;;3.30;99.90;;;;;;5049630;28;20482;-59
2023/01/22 08:16:08;;;;;;;59.90;17.30;;;3.30;99.90;;;;;;5069100;28;20481;-59
2023/01/22 08:18:35;;;;;;;58.93;16.93;;;3.30;99.90;;;;;;5040483;28;20604;-59
2023/01/22 08:21:03;;;;;;;38.70;12.57;;;3.30;99.90;;;;;;5078262;28;20487;-59
2023/01/22 08:23:30;;;;;;;54.27;14.97;;;3.30;99.90;;;;;;5061059;28;20481;-59
2023/01/22 08:25:59;;;;;;;48.23;12.40;;;;;;;;;;5073182;28;20465;-60
2023/01/22 08:28:26;;;;;;;61.33;15.30;;;;;;;;;;5056384;28;21011;-59
2023/01/22 08:30:57;;;;;;;57.03;16.60;;;3.30;99.90;;;;;;5048175;28;20506;-59
2023/01/22 08:33:23;;;;;;;47.27;14.17;;;3.30;99.90;;;;;;5056602;28;20491;-59
2023/01/22 08:35:50;;;;;;;63.40;14.70;;;3.30;99.90;;;;;;5065300;28;20474;-59
2023/01/22 08:38:18;;;;;;;54.50;13.73;;;;;;;;;;5057198;28;20511;-58
2023/01/22 08:40:48;;;;;;;105.63;17.67;;;3.30;99.90;;;;;;5050498;28;20744;-59
2023/01/22 08:43:16;;;;;;;61.07;13.93;;;;;;;;;;5060178;28;20493;-59
2023/01/22 08:45:43;;;;;;;69.27;17.60;;;;;;;;;;5062606;28;20498;-59
2023/01/22 08:48:09;;;;;;;71.17;14.27;;;3.40;99.90;;;;;;5068500;28;20485;-59
2023/01/22 08:50:36;;;;;;;69.40;16.90;;;3.40;99.90;;;;;;5070912;28;20497;-59
2023/01/22 08:53:03;;;;;;;49.53;12.27;;;;;;;;;;5053897;28;20479;-59
2023/01/22 08:55:31;;;;;;;50.43;12.67;;;3.40;99.90;;;;;;5054753;28;21013;-59
2023/01/22 08:57:58;;;;;;;62.60;15.20;;;;;;;;;;5049450;28;20471;-59
2023/01/22 09:00:26;;;;;;;66.20;15.50;;;3.60;99.90;;;;;;5070916;28;20473;-59
2023/01/22 09:02:58;;;;;;;59.83;14.10;;;3.60;99.90;;;;;;5049072;28;20975;-59
2023/01/22 09:05:24;;;;;;;51.53;14.27;;;3.60;99.90;;;;;;5063309;28;20557;-59
2023/01/22 09:07:52;;;;;;;50.17;12.10;;;3.60;99.90;;;;;;5045056;28;20487;-59
2023/01/22 09:10:19;;;;;;;51.53;13.80;;;;;;;;;;5039782;28;20842;-60
2023/01/22 09:12:47;;;;;;;64.07;16.50;;;3.70;99.90;;;;;;5034239;28;20485;-60
2023/01/22 09:15:14;;;;;;;54.73;13.83;;;3.80;99.90;;;;;;5046527;28;20944;-59
2023/01/22 09:17:41;;;;;;;54.07;16.03;;;3.80;99.90;;;;;;5069387;28;21185;-59
2023/01/22 09:20:09;;;;;;;55.70;12.53;;;;;;;;;;5043985;28;20469;-59
2023/01/22 09:22:36;;;;;;;45.53;13.80;;;;;;;;;;5050506;28;20834;-59
2023/01/22 09:25:03;;;;;;;40.47;13.70;;;;;;;;;;5067617;28;20506;-59
2023/01/22 09:27:30;;;;;;;32.67;12.03;;;;;;;;;;5033768;28;20517;-59
2023/01/22 09:29:59;;;;;;;44.43;11.90;;;4.50;99.90;;;;;;5070956;28;20485;-58
2023/01/22 09:32:26;;;;;;;43.33;13.93;;;;;;;;;;5048884;28;20500;-60
2023/01/22 09:34:53;;;;;;;46.77;14.30;;;4.90;99.80;;;;;;5058013;28;20498;-59
2023/01/22 09:37:20;;;;;;;37.80;13.30;;;5.00;99.60;;;;;;5066545;28;20495;-59
2023/01/22 09:39:49;;;;;;;48.63;18.63;;;5.30;99.70;;;;;;5047517;28;20483;-59
2023/01/22 09:42:20;;;;;;;38.67;12.03;;;5.40;99.40;;;;;;5047622;28;20495;-59
2023/01/22 09:44:50;;;;;;;43.67;15.50;;;;;;;;;;5069386;28;20484;-59
2023/01/22 09:47:21;;;;;;;38.70;11.43;;;5.80;98.60;;;;;;5046386;28;20478;-59
2023/01/22 09:49:54;;;;;;;39.53;14.50;;;5.80;98.60;;;;;;5063871;28;20487;-59
2023/01/22 09:52:23;;;;;;;33.33;10.37;;;6.00;98.60;;;;;;5036508;28;20487;-60
2023/01/22 09:54:50;;;;;;;43.53;14.40;;;6.10;98.10;;;;;;5068531;28;21003;-60
2023/01/22 09:57:17;;;;;;;30.73;12.17;;;6.20;98.40;;;;;;5059774;28;20469;-59
2023/01/22 09:59:46;;;;;;;39.13;15.40;;;;;;;;;;5050898;28;20862;-60
2023/01/22 10:02:23;;;;;;;29.80;9.27;;;6.30;97.40;;;;;;5078205;28;20493;-60
2023/01/22 10:04:52;;;;;;;34.93;12.80;;;6.20;97.40;;;;;;5063598;28;20537;-60
2023/01/22 10:07:22;;;;;;;28.40;11.10;;;;;;;;;;5077571;28;20506;-59
2023/01/22 10:09:52;;;;;;;35.23;15.13;;;;;;;;;;5058473;28;21036;-60
2023/01/22 10:12:19;;;;;;;34.60;12.47;;;5.60;97.30;;;;;;5068876;28;20800;-59
2023/01/22 10:14:46;;;;;;;39.10;15.27;;;5.50;97.80;;;;;;5049638;28;21014;-59
2023/01/22 10:17:22;;;;;;;29.50;13.17;;;5.50;98.00;;;;;;5069240;28;20991;-60
2023/01/22 10:19:52;;;;;;;44.23;15.23;;;;;;;;;;5053640;27;20481;-59
2023/01/22 10:22:22;;;;;;;39.83;12.90;;;5.50;97.90;;;;;;5047715;28;20764;-59
2023/01/22 10:24:49;;;;;;;41.70;13.90;;;5.60;98.20;;;;;;5056273;28;20582;-60
2023/01/22 10:27:19;;;;;;;29.50;11.83;;;5.50;97.90;;;;;;5044005;28;20483;-59
2023/01/22 10:29:57;;;;;;;40.00;13.10;;;5.40;98.00;;;;;;5054329;28;20874;-60
2023/01/22 10:32:27;;;;;;;30.33;11.10;;;5.30;97.80;;;;;;5048239;28;20485;-60
2023/01/22 10:34:59;;;;;;;31.07;9.53;;;;;;;;;;5045101;28;21021;-59
2023/01/22 10:37:26;;;;;;;35.40;10.80;;;;;;;;;;5063440;28;20853;-60
2023/01/22 10:39:57;;;;;;;36.37;12.00;;;5.10;98.20;;;;;;5057133;28;20488;-59
2023/01/22 10:42:27;;;;;;;34.00;11.57;;;5.00;98.20;;;;;;5073275;28;20557;-60
2023/01/22 10:44:56;;;;;;;34.00;9.87;;;5.00;98.20;;;;;;5037322;28;20479;-60
2023/01/22 10:47:26;;;;;;;41.30;13.07;;;4.90;98.20;;;;;;5046023;28;20570;-59
2023/01/22 10:50:02;;;;;;;22.77;9.30;;;4.90;98.30;;;;;;5055422;28;21363;-60
2023/01/22 10:52:35;;;;;;;46.67;11.80;;;5.00;98.60;;;;;;5060636;28;20485;-59
2023/01/22 10:55:03;;;;;;;27.03;8.60;;;5.00;98.50;;;;;;5049167;28;20491;-59
2023/01/22 10:57:32;;;;;;;31.10;10.33;;;;;;;;;;5040554;28;20480;-60
2023/01/22 11:00:19;;;;;;;26.33;9.60;;;5.10;98.40;;;;;;5068806;28;20483;-60
2023/01/22 11:02:49;;;;;;;43.07;13.53;;;5.10;98.50;;;;;;5044572;28;20576;-60
2023/01/22 11:05:18;;;;;;;45.67;12.30;;;5.20;98.50;;;;;;5043936;28;20486;-59
2023/01/22 11:07:46;;;;;;;51.67;13.77;;;;;;;;;;5048339;28;20470;-59
2023/01/22 11:10:20;;;;;;;46.63;11.67;;;5.40;98.50;;;;;;5065889;28;20485;-59
2023/01/22 11:12:49;;;;;;;50.67;13.87;;;5.40;98.40;;;;;;5066657;28;20760;-59
2023/01/22 11:15:21;;;;;;;29.80;9.17;;;;;;;;;;5061382;28;20493;-59
2023/01/22 11:17:52;;;;;;;36.23;10.20;;;5.20;97.80;;;;;;5055243;28;20505;-59
2023/01/22 11:20:22;;;;;;;24.33;8.93;;;;;;;;;;5077302;28;20483;-59
2023/01/22 11:22:54;;;;;;;35.03;11.60;;;;;;;;;;5042664;28;20483;-59
2023/01/22 11:25:21;;;;;;;35.53;11.50;;;5.20;98.40;;;;;;5053311;28;20478;-59
2023/01/22 11:28:02;;;;;;;52.00;12.33;;;5.20;98.10;;;;;;5048937;28;21368;-60
2023/01/22 11:30:53;;;;;;;19.37;7.17;;;5.10;98.00;;;;;;5040807;28;20542;-60
2023/01/22 11:33:32;;;;;;;25.77;10.67;;;;;;;;;;5031962;28;20575;-59
2023/01/22 11:36:05;;;;;;;22.70;8.60;;;5.20;98.50;;;;;;5038976;28;20479;-59
2023/01/22 11:38:42;;;;;;;26.80;8.77;;;5.20;98.30;;;;;;5044483;28;20806;-59
2023/01/22 11:41:22;;;;;;;25.43;7.80;;;5.10;98.20;;;;;;5037412;28;20772;-60
2023/01/22 11:44:13;;;;;;;31.80;11.07;;;5.20;98.50;;;;;;5073502;28;20480;-59
2023/01/22 11:46:53;;;;;;;35.33;13.23;;;5.20;98.40;;;;;;5047428;28;20562;-59
2023/01/22 11:49:32;;;;;;;22.13;8.10;;;5.20;98.60;;;;;;5036407;28;20498;-59
2023/01/22 11:52:13;;;;;;;26.47;8.70;;;5.20;98.40;;;;;;5072382;28;20473;-60
2023/01/22 11:54:55;;;;;;;35.37;12.63;;;5.20;98.50;;;;;;5044926;28;20470;-59
2023/01/22 11:57:28;;;;;;;29.80;10.20;;;5.20;98.30;;;;;;5060320;28;20532;-59
2023/01/22 12:00:24;;;;;;;22.27;9.30;;;5.20;98.30;;;;;;5060679;28;20483;-60
2023/01/22 12:03:40;;;;;;;31.03;10.23;;;5.20;98.20;;;;;;5045257;28;20471;-59
2023/01/22 12:06:32;;;;;;;21.37;9.00;;;5.20;98.50;;;;;;5066246;28;20477;-59
2023/01/22 12:09:07;;;;;;;25.47;9.50;;;5.30;98.50;;;;;;5054618;28;20474;-60
2023/01/22 12:11:39;;;;;;;31.37;9.37;;;;;;;;;;5043428;28;20486;-60
2023/01/22 12:14:24;;;;;;;24.10;7.90;;;;;;;;;;5079219;28;20483;-59
2023/01/22 12:16:57;;;;;;;32.53;11.67;;;5.30;98.10;;;;;;5057371;28;20481;-60
2023/01/22 12:19:58;;;;;;;32.80;8.40;;;5.20;98.10;;;;;;5040185;28;20929;-59
2023/01/22 12:22:31;;;;;;;21.80;7.67;;;;;;;;;;5002991;28;20488;-59
2023/01/22 12:25:03;;;;;;;32.43;11.00;;;5.30;98.30;;;;;;5054163;28;20824;-60
2023/01/22 12:27:33;;;;;;;25.83;10.53;;;;;;;;;;5072878;28;20485;-59
2023/01/22 12:30:05;;;;;;;24.80;8.53;;;5.40;98.10;;;;;;5060896;28;20839;-59
2023/01/22 12:32:32;;;;;;;26.23;10.40;;;;;;;;;;5039963;28;20489;-59
2023/01/22 12:35:04;;;;;;;31.83;10.87;;;5.50;98.30;;;;;;5071741;28;20489;-59
2023/01/22 12:37:40;;;;;;;30.17;10.53;;;5.50;98.30;;;;;;5066916;28;20603;-59
2023/01/22 12:40:26;;;;;;;42.70;12.00;;;5.40;98.10;;;;;;5076963;28;20520;-59
2023/01/22 12:43:00;;;;;;;25.67;9.97;;;5.40;98.30;;;;;;5050300;28;20492;-61
2023/01/22 12:45:38;;;;;;;23.07;8.20;;;5.30;98.10;;;;;;5065543;28;20478;-60
2023/01/22 12:48:13;;;;;;;23.97;8.67;;;5.40;98.40;;;;;;5045248;28;20482;-60
2023/01/22 12:50:49;;;;;;;41.27;12.30;;;5.30;98.20;;;;;;5068543;28;20485;-60
2023/01/22 12:53:25;;;;;;;34.73;12.80;;;5.30;98.30;;;;;;5056358;28;20473;-60
2023/01/22 12:56:01;;;;;;;25.63;10.90;;;5.20;98.20;;;;;;5060896;28;20581;-60
2023/01/22 12:58:30;;;;;;;27.50;10.30;;;5.10;98.20;;;;;;5052926;28;20591;-59
2023/01/22 13:01:03;;;;;;;38.73;11.30;;;5.10;98.30;;;;;;5059258;28;20483;-60
2023/01/22 13:03:30;;;;;;;34.43;9.80;;;5.00;98.30;;;;;;5073612;28;20852;-59
2023/01/22 13:05:59;;;;;;;28.03;10.27;;;4.30;98.20;;;;;;5058703;28;20483;-60
2023/01/22 13:08:45;;;;;;;26.80;9.63;;;5.00;98.70;;;;;;5055835;28;20512;-59
2023/01/22 13:11:13;;;;;;;39.57;12.23;;;;;;;;;;5058288;28;20860;-59
2023/01/22 13:13:42;;;;;;;49.00;17.17;;;;;;;;;;5055600;28;20482;-59
2023/01/22 13:16:21;;;;;;;25.13;9.87;;;5.10;98.60;;;;;;5053968;28;20476;-59
2023/01/22 13:18:49;;;;;;;33.10;13.10;;;5.00;98.50;;;;;;5072443;28;20498;-59
2023/01/22 13:21:18;;;;;;;23.03;9.33;;;5.10;98.80;;;;;;5050264;28;20508;-59
2023/01/22 13:23:49;;;;;;;35.97;13.40;;;5.10;98.70;;;;;;5064291;28;20483;-59
2023/01/22 13:26:16;;;;;;;38.67;12.27;;;;;;;;;;5060056;28;20469;-59
2023/01/22 13:28:53;;;;;;;40.00;14.73;;;5.20;98.80;;;;;;5067680;28;20846;-59